Time;durP1;ratioP1;P1;durP2;ratioP2;P2;SDS_P1;SDS_P2;PMS_P1;PMS_P2;Temp;Humidity;BMP_temperature;BMP_pressure;BME280_temperature;BME280_humidity;BME280_pressure;Samples;Min_cycle;Max_cycle;Signal;HPM_P1;HPM_P2
2022/06/04 00:03:42;;;;;;;1.95;1.38;;;;;;;17.78;100.00;98393.78;15268902;19;20035;-49
2022/06/04 00:08:49;;;;;;;2.47;1.40;;;;;;;17.79;100.00;98395.47;15272530;19;20373;-52
2022/06/04 00:19:12;;;;;;;3.67;1.80;;;;;;;17.44;100.00;98392.91;15269707;19;20341;-53
2022/06/04 00:24:20;;;;;;;2.20;1.80;;;;;;;17.38;100.00;98386.41;15273432;19;20409;-50
2022/06/04 00:29:25;;;;;;;2.53;1.65;;;;;;;17.33;100.00;98379.88;15280881;19;20547;-55
2022/06/04 00:34:31;;;;;;;4.68;1.80;;;;;;;17.31;100.00;98374.63;15286554;19;20042;-52
2022/06/04 00:39:40;;;;;;;1.77;1.65;;;;;;;17.34;100.00;98374.22;15284515;19;20124;-57
2022/06/04 00:45:27;;;;;;;3.83;1.60;;;;;;;17.40;100.00;98369.84;15286072;19;20850;-48
2022/06/04 00:50:35;;;;;;;1.90;1.60;;;;;;;17.37;100.00;98378.41;15286760;19;20022;-56
2022/06/04 00:55:51;;;;;;;2.72;1.85;;;;;;;17.17;100.00;98392.81;15283831;19;20015;-54
2022/06/04 01:01:00;;;;;;;3.92;1.55;;;;;;;17.04;100.00;98398.22;15288461;19;20043;-50
2022/06/04 01:06:21;;;;;;;2.03;1.60;;;;;;;16.89;100.00;98406.50;15286150;19;20353;-53
2022/06/04 01:12:09;;;;;;;3.22;1.60;;;;;;;16.67;100.00;98413.91;15280823;19;20022;-49
2022/06/04 01:17:16;;;;;;;1.70;1.40;;;;;;;16.74;100.00;98417.53;15285881;19;20006;-54
2022/06/04 01:22:48;;;;;;;1.45;1.30;;;;;;;16.75;100.00;98421.94;15284978;19;20085;-59
2022/06/04 01:28:01;;;;;;;1.95;1.50;;;;;;;16.77;100.00;98428.84;15277462;19;20031;-52
2022/06/04 01:33:12;;;;;;;4.28;1.65;;;;;;;16.77;100.00;98423.41;15283635;19;20034;-52
2022/06/04 01:38:24;;;;;;;3.03;1.60;;;;;;;16.81;100.00;98428.44;15283237;19;20010;-55
2022/06/04 01:43:36;;;;;;;2.22;1.60;;;;;;;16.79;100.00;98423.19;15278146;19;20014;-54
2022/06/04 01:48:44;;;;;;;3.42;1.70;;;;;;;16.71;100.00;98409.78;15282702;19;20424;-55
2022/06/04 01:53:54;;;;;;;2.58;1.70;;;;;;;16.71;100.00;98404.31;15286882;19;20022;-57
2022/06/04 01:59:08;;;;;;;4.20;1.88;;;;;;;16.69;100.00;98392.81;15273675;19;20029;-57
2022/06/04 02:04:19;;;;;;;2.75;1.88;;;;;;;16.53;100.00;98385.81;15282946;19;20094;-48
2022/06/04 02:09:25;;;;;;;3.00;1.70;;;;;;;16.41;100.00;98385.53;15283360;19;20015;-53
2022/06/04 02:14:33;;;;;;;3.83;1.75;;;;;;;16.38;100.00;98404.97;15275920;19;20025;-58
2022/06/04 02:19:38;;;;;;;2.72;1.67;;;;;;;16.23;100.00;98418.69;15280362;19;20010;-50
2022/06/04 02:24:44;;;;;;;2.28;1.60;;;;;;;16.14;100.00;98415.28;15282323;19;20010;-49
2022/06/04 02:29:51;;;;;;;3.17;1.63;;;;;;;15.96;100.00;98419.28;15279698;19;20026;-49
2022/06/04 02:35:04;;;;;;;3.40;1.60;;;;;;;15.86;100.00;98424.22;15277318;19;20022;-52
2022/06/04 02:40:13;;;;;;;3.35;1.67;;;;;;;15.90;100.00;98439.13;15282762;19;20345;-49
2022/06/04 02:45:26;;;;;;;1.77;1.55;;;;;;;15.93;100.00;98435.16;15274358;19;20050;-51
2022/06/04 02:50:37;;;;;;;1.60;1.50;;;;;;;15.91;100.00;98448.94;15281073;19;20027;-51
2022/06/04 02:55:50;;;;;;;2.35;1.90;;;;;;;15.89;100.00;98439.28;15279232;19;20014;-54
2022/06/04 03:01:00;;;;;;;2.35;1.55;;;;;;;15.87;100.00;98434.06;15276719;19;20007;-51
2022/06/04 03:06:09;;;;;;;2.28;1.90;;;;;;;15.88;100.00;98433.03;15278138;19;20018;-50
2022/06/04 03:11:16;;;;;;;3.30;1.85;;;;;;;15.92;100.00;98438.91;15278492;19;20590;-49
2022/06/04 03:16:25;;;;;;;2.95;1.77;;;;;;;15.95;100.00;98438.53;15274902;19;20011;-57
2022/06/04 03:21:32;;;;;;;2.45;1.73;;;;;;;15.97;100.00;98441.91;15270743;19;20014;-60
2022/06/04 03:26:37;;;;;;;2.88;1.80;;;;;;;15.95;100.00;98450.22;15276537;19;20018;-60
2022/06/04 03:31:45;;;;;;;2.80;1.88;;;;;;;15.83;100.00;98454.47;15276606;19;20031;-51
2022/06/04 03:36:50;;;;;;;2.47;1.77;;;;;;;15.86;100.00;98473.13;15269879;19;20018;-51
2022/06/04 03:41:56;;;;;;;2.53;1.95;;;;;;;15.62;100.00;98486.03;15275804;19;20457;-55
2022/06/04 03:47:05;;;;;;;3.03;2.00;;;;;;;15.66;100.00;98479.19;15276152;19;20577;-50
2022/06/04 03:52:11;;;;;;;3.92;2.00;;;;;;;15.65;100.00;98473.94;15269645;19;20025;-50
2022/06/04 04:02:37;;;;;;;3.15;1.95;;;;;;;15.65;100.00;98477.50;15275868;19;20598;-56
2022/06/04 04:07:43;;;;;;;3.13;2.15;;;;;;;15.61;100.00;98484.34;15284793;19;20018;-50
2022/06/04 04:12:48;;;;;;;2.67;2.13;;;;;;;15.61;100.00;98481.63;15291008;19;20014;-51
2022/06/04 04:17:59;;;;;;;4.40;2.22;;;;;;;15.62;100.00;98479.75;15287711;19;20404;-55
2022/06/04 04:23:07;;;;;;;3.05;2.30;;;;;;;15.68;100.00;98477.13;15283157;19;20018;-50
2022/06/04 04:28:13;;;;;;;4.90;2.00;;;;;;;15.74;100.00;98485.50;15287209;19;20024;-51
2022/06/04 04:33:22;;;;;;;4.43;2.10;;;;;;;15.74;100.00;98471.94;15288955;19;20011;-49
2022/06/04 04:38:27;;;;;;;2.40;1.85;;;;;;;15.78;100.00;98478.66;15279723;19;20014;-62
2022/06/04 04:43:32;;;;;;;5.15;2.00;;;;;;;15.88;100.00;98492.81;15285303;19;20016;-61
2022/06/04 04:48:40;;;;;;;1.90;1.70;;;;;;;15.95;100.00;98482.00;15286849;19;20341;-62
2022/06/04 04:53:46;;;;;;;2.42;1.55;;;;;;;15.99;100.00;98467.81;15286421;19;20014;-62
2022/06/04 04:58:51;;;;;;;1.63;1.40;;;;;;;16.00;100.00;98464.06;15290616;19;20132;-61
2022/06/04 05:03:59;;;;;;;1.05;1.02;;;;;;;16.02;100.00;98459.28;15291455;19;20007;-62
2022/06/04 05:09:08;;;;;;;1.83;1.40;;;;;;;16.04;100.00;98458.25;15287515;19;20021;-60
2022/06/04 05:14:13;;;;;;;1.95;1.35;;;;;;;16.04;100.00;98467.25;15286968;19;20018;-59
2022/06/04 05:19:22;;;;;;;2.25;1.35;;;;;;;16.01;100.00;98471.19;15289051;19;20310;-60
2022/06/04 05:24:30;;;;;;;2.47;1.33;;;;;;;16.11;100.00;98470.84;15290400;19;20027;-58
2022/06/04 05:29:37;;;;;;;2.22;1.20;;;;;;;16.21;100.00;98465.06;15279087;19;20389;-56
2022/06/04 05:34:44;;;;;;;1.67;1.20;;;;;;;16.28;100.00;98468.72;15290153;19;20035;-59
2022/06/04 05:39:51;;;;;;;1.45;1.10;;;;;;;16.37;100.00;98490.31;15284574;19;20014;-60
2022/06/04 05:44:56;;;;;;;3.42;1.15;;;;;;;16.40;100.00;98482.59;15284297;19;20436;-57
2022/06/04 05:50:03;;;;;;;1.52;1.20;;;;;;;16.51;100.00;98489.38;15285291;19;20475;-57
2022/06/04 05:55:09;;;;;;;2.05;1.40;;;;;;;16.53;100.00;98500.03;15286630;19;20348;-57
2022/06/04 06:00:16;;;;;;;1.65;1.02;;;;;;;16.59;100.00;98499.22;15280392;19;20018;-59
2022/06/04 06:05:24;;;;;;;1.42;1.08;;;;;;;16.55;100.00;98512.41;15285095;19;20014;-60
2022/06/04 06:10:29;;;;;;;2.15;1.10;;;;;;;16.58;100.00;98512.00;15282817;19;20021;-61
2022/06/04 06:15:34;;;;;;;3.15;1.10;;;;;;;16.68;100.00;98518.97;15280988;19;20010;-61
2022/06/04 06:20:45;;;;;;;1.92;1.13;;;;;;;16.73;100.00;98522.78;15281700;19;20018;-60
2022/06/04 06:25:50;;;;;;;1.60;1.10;;;;;;;16.85;100.00;98542.13;15280143;19;20102;-59
2022/06/04 06:30:57;;;;;;;1.75;1.20;;;;;;;16.86;100.00;98542.94;15274354;19;20830;-62
2022/06/04 06:36:07;;;;;;;4.65;1.23;;;;;;;16.92;100.00;98542.19;14773232;19;10001617;-60
2022/06/04 06:41:12;;;;;;;2.10;1.10;;;;;;;17.02;100.00;98542.69;15280517;19;20035;-60
2022/06/04 06:46:20;;;;;;;1.70;1.20;;;;;;;17.17;100.00;98537.09;15281275;19;20010;-60
2022/06/04 06:51:31;;;;;;;1.63;1.00;;;;;;;17.24;100.00;98543.41;15275946;19;20102;-57
2022/06/04 06:56:39;;;;;;;4.47;1.17;;;;;;;17.32;100.00;98541.59;15283538;19;20339;-60
2022/06/04 07:01:44;;;;;;;2.28;1.20;;;;;;;17.40;100.00;98549.56;15275753;19;20025;-59
2022/06/04 07:06:55;;;;;;;1.90;1.00;;;;;;;17.43;100.00;98560.06;15268451;19;20014;-60
2022/06/04 07:12:01;;;;;;;2.10;1.20;;;;;;;17.30;100.00;98554.56;15276839;19;20368;-59
2022/06/04 07:17:07;;;;;;;3.47;1.30;;;;;;;17.40;100.00;98565.91;15280299;19;20010;-60
2022/06/04 07:22:15;;;;;;;1.45;1.10;;;;;;;17.31;100.00;98561.69;15274933;19;20022;-60
2022/06/04 07:27:21;;;;;;;1.45;1.10;;;;;;;17.39;100.00;98553.34;15280034;19;20007;-60
2022/06/04 07:32:26;;;;;;;2.28;1.10;;;;;;;17.39;100.00;98545.16;15277399;19;20024;-60
2022/06/04 07:37:33;;;;;;;1.30;1.10;;;;;;;17.45;100.00;98544.38;15267334;19;20594;-60
2022/06/04 07:42:39;;;;;;;1.50;1.10;;;;;;;17.53;100.00;98551.50;15276414;19;20006;-62
2022/06/04 07:47:45;;;;;;;1.45;1.20;;;;;;;17.32;100.00;98568.81;15274548;19;20046;-59
2022/06/04 07:52:52;;;;;;;2.45;1.20;;;;;;;17.35;100.00;98568.38;15272701;19;20027;-60
2022/06/04 07:57:57;;;;;;;1.20;1.02;;;;;;;17.41;100.00;98570.31;15276726;19;20377;-60
2022/06/04 08:03:02;;;;;;;3.42;1.30;;;;;;;17.59;100.00;98574.38;15278538;19;20014;-61
2022/06/04 08:08:10;;;;;;;2.47;1.40;;;;;;;17.69;100.00;98572.13;15270062;19;20018;-59
2022/06/04 08:13:17;;;;;;;1.30;1.20;;;;;;;17.84;100.00;98572.78;15275044;19;20011;-61
2022/06/04 08:18:24;;;;;;;1.30;1.20;;;;;;;18.05;100.00;98576.44;15272265;19;20010;-58
2022/06/04 08:23:32;;;;;;;2.72;1.17;;;;;;;18.28;100.00;98584.25;15267287;19;20010;-58
2022/06/04 08:28:38;;;;;;;2.17;1.30;;;;;;;18.27;100.00;98570.84;15271923;19;20010;-60
2022/06/04 08:33:44;;;;;;;1.90;1.33;;;;;;;18.51;100.00;98576.75;15273169;19;20031;-58
2022/06/04 08:38:51;;;;;;;2.67;1.48;;;;;;;18.76;100.00;98582.41;15273652;19;20014;-60
2022/06/04 08:44:02;;;;;;;2.35;1.45;;;;;;;18.76;100.00;98575.03;15270041;19;20050;-58
2022/06/04 08:49:15;;;;;;;3.45;1.50;;;;;;;18.92;100.00;98589.31;15275472;19;20014;-60
2022/06/04 08:59:43;;;;;;;;;;;;;;;19.20;100.00;98594.56;15284216;19;20474;-60
2022/06/04 09:05:04;;;;;;;3.53;1.40;;;;;;;19.37;100.00;98585.91;15287556;19;19955;-60
2022/06/04 09:10:19;;;;;;;3.63;1.60;;;;;;;19.50;100.00;98601.41;15284159;19;20042;-58
2022/06/04 09:15:29;;;;;;;1.67;1.50;;;;;;;19.50;100.00;98601.41;15280555;19;20027;-62
2022/06/04 09:20:39;;;;;;;1.70;1.60;;;;;;;19.56;100.00;98614.22;15285226;19;20015;-61
2022/06/04 09:25:55;;;;;;;2.97;1.70;;;;;;;19.65;100.00;98618.41;15283651;19;20565;-60
2022/06/04 09:31:19;;;;;;;;;;;;;;;19.67;100.00;98624.50;15280226;19;20010;-58
2022/06/04 09:36:28;;;;;;;1.85;1.50;;;;;;;20.00;100.00;98639.94;15282614;19;20356;-58
2022/06/04 09:41:37;;;;;;;2.80;1.35;;;;;;;20.16;100.00;98645.97;15275326;19;20390;-63
2022/06/04 09:46:46;;;;;;;2.75;1.67;;;;;;;20.45;100.00;98646.44;15273532;19;20508;-59
2022/06/04 09:51:52;;;;;;;2.75;1.60;;;;;;;20.61;100.00;98639.59;15281308;19;20014;-64
2022/06/04 09:57:08;;;;;;;4.55;1.52;;;;;;;20.64;100.00;98652.84;15284630;19;20349;-64
2022/06/04 10:02:21;;;;;;;3.50;1.50;;;;;;;20.84;100.00;98644.53;15276270;19;20021;-60
2022/06/04 10:07:33;;;;;;;2.67;1.75;;;;;;;21.07;100.00;98637.59;15282848;19;20018;-64
2022/06/04 10:18:18;;;;;;;1.75;1.63;;;;;;;21.38;100.00;98638.53;15274188;19;20018;-62
2022/06/04 10:23:23;;;;;;;1.70;1.50;;;;;;;21.34;100.00;98649.13;15282685;19;20015;-61
2022/06/04 10:28:42;;;;;;;1.60;1.50;;;;;;;21.32;100.00;98643.03;15279947;19;20018;-62
2022/06/04 10:33:56;;;;;;;3.95;1.60;;;;;;;21.24;100.00;98643.31;15272456;19;20014;-62
2022/06/04 10:39:12;;;;;;;2.13;1.88;;;;;;;21.42;100.00;98638.91;15277191;19;20019;-58
2022/06/04 10:44:47;;;;;;;3.47;1.83;;;;;;;21.49;100.00;98637.78;15267304;19;20486;-54
2022/06/04 10:50:13;;;;;;;2.85;1.60;;;;;;;21.43;100.00;98635.97;15270801;19;20709;-56
2022/06/04 10:55:27;;;;;;;2.72;1.70;;;;;;;21.45;100.00;98633.84;15279747;19;20018;-58
2022/06/04 11:00:42;;;;;;;3.13;1.55;;;;;;;21.66;100.00;98637.25;15276408;19;20488;-56
2022/06/04 11:05:50;;;;;;;2.10;1.55;;;;;;;21.82;100.00;98639.34;15274220;19;20022;-60
2022/06/04 11:11:02;;;;;;;4.50;1.90;;;;;;;21.97;100.00;98636.22;15274930;19;20027;-53
2022/06/04 11:16:17;;;;;;;4.32;1.80;;;;;;;22.10;100.00;98643.44;15275573;19;20011;-58
2022/06/04 11:21:29;;;;;;;3.67;1.80;;;;;;;22.42;100.00;98642.41;15269526;19;20031;-59
2022/06/04 11:26:41;;;;;;;2.40;1.63;;;;;;;22.19;100.00;98638.47;15278186;19;20424;-56
2022/06/04 11:32:00;;;;;;;3.90;1.50;;;;;;;22.55;100.00;98644.13;15274985;19;20015;-57
2022/06/04 11:37:20;;;;;;;6.07;1.60;;;;;;;22.06;100.00;98644.97;15273482;19;20014;-57
2022/06/04 11:42:34;;;;;;;3.70;1.95;;;;;;;21.92;100.00;98648.97;15272420;19;20018;-57
2022/06/04 11:48:02;;;;;;;4.30;1.67;;;;;;;22.00;100.00;98652.22;15277982;19;20018;-54
2022/06/04 11:53:23;;;;;;;2.08;1.40;;;;;;;22.02;100.00;98652.00;15267116;19;20027;-53
2022/06/04 11:58:46;;;;;;;2.33;1.50;;;;;;;22.43;100.00;98666.88;15276858;19;20077;-57
2022/06/04 12:04:01;;;;;;;2.42;1.65;;;;;;;22.13;100.00;98678.66;15275025;19;20018;-55
2022/06/04 12:09:14;;;;;;;4.18;1.60;;;;;;;22.49;100.00;98665.09;15270776;19;20007;-59
2022/06/04 12:14:32;;;;;;;2.58;1.50;;;;;;;22.48;100.00;98652.44;15275329;19;20015;-54
2022/06/04 12:25:02;;;;;;;2.35;1.90;;;;;;;22.01;100.00;98659.38;15271819;19;20014;-57
2022/06/04 12:30:20;;;;;;;3.20;1.70;;;;;;;21.94;100.00;98666.00;15284520;19;20098;-54
2022/06/04 12:35:28;;;;;;;2.35;1.50;;;;;;;22.15;100.00;98657.31;15288697;19;20042;-58
2022/06/04 12:40:37;;;;;;;2.00;1.50;;;;;;;22.35;100.00;98658.09;15285490;19;20027;-55
2022/06/04 12:45:45;;;;;;;1.95;1.42;;;;;;;22.43;100.00;98655.91;15282749;19;20027;-56
2022/06/04 12:51:02;;;;;;;2.35;1.50;;;;;;;22.73;100.00;98652.31;15284474;19;20014;-58
2022/06/04 12:56:10;;;;;;;2.63;1.23;;;;;;;23.31;100.00;98655.38;15287783;19;20027;-58
2022/06/04 13:01:26;;;;;;;1.83;1.38;;;;;;;23.77;100.00;98660.25;15277973;19;20033;-55
2022/06/04 13:06:48;;;;;;;1.30;1.10;;;;;;;24.17;95.99;98656.69;15284521;19;20017;-58
2022/06/04 13:12:05;;;;;;;1.75;1.20;;;;;;;24.14;87.98;98657.19;15280465;19;20575;-57
2022/06/04 13:17:36;;;;;;;2.53;1.05;;;;;;;24.37;88.57;98644.41;15282001;19;20031;-57
2022/06/04 13:22:49;;;;;;;1.67;1.10;;;;;;;25.01;90.93;98638.69;15281258;19;20014;-59
2022/06/04 13:27:58;;;;;;;3.63;1.10;;;;;;;25.32;82.17;98644.66;15285102;19;20405;-54
2022/06/04 13:33:14;;;;;;;1.48;0.93;;;;;;;25.54;77.70;98643.91;15277646;19;20014;-58
2022/06/04 13:38:28;;;;;;;4.22;1.05;;;;;;;25.52;82.31;98641.41;15282692;19;20460;-59
2022/06/04 13:43:41;;;;;;;2.10;1.10;;;;;;;25.58;80.16;98647.03;15280537;19;20026;-60
2022/06/04 13:48:59;;;;;;;2.42;1.10;;;;;;;25.41;76.02;98634.09;15279391;19;20014;-58
2022/06/04 13:54:07;;;;;;;1.40;0.93;;;;;;;25.14;78.76;98631.16;15281732;19;20031;-56
2022/06/04 13:59:20;;;;;;;1.77;1.13;;;;;;;25.03;77.74;98635.66;15283726;19;20355;-56
2022/06/04 14:09:53;;;;;;;5.97;1.00;;;;;;;24.65;82.34;98634.44;15281947;19;20097;-59
2022/06/04 14:15:14;;;;;;;3.13;1.00;;;;;;;24.59;81.10;98628.84;15280707;19;20052;-57
2022/06/04 14:20:32;;;;;;;1.63;1.00;;;;;;;24.89;80.24;98613.97;15276652;19;20017;-57
2022/06/04 14:25:48;;;;;;;1.52;1.10;;;;;;;25.25;80.94;98621.97;15280414;19;20026;-56
2022/06/04 14:31:25;;;;;;;2.67;1.17;;;;;;;25.59;73.31;98621.06;15275590;19;20051;-61
2022/06/04 14:36:32;;;;;;;2.22;1.10;;;;;;;25.62;78.45;98632.47;15272956;19;20115;-55
2022/06/04 14:41:59;;;;;;;1.65;1.10;;;;;;;25.88;70.11;98641.03;15276011;19;20038;-59
2022/06/04 14:47:19;;;;;;;2.00;0.95;;;;;;;26.25;71.59;98639.59;15276134;19;20036;-58
2022/06/04 14:52:35;;;;;;;1.47;1.10;;;;;;;26.28;68.23;98636.31;15268855;19;20475;-54
2022/06/04 14:58:06;;;;;;;4.10;1.00;;;;;;;25.74;68.29;98651.63;15278517;19;20014;-51
2022/06/04 15:03:35;;;;;;;1.45;0.95;;;;;;;25.15;70.78;98650.19;15274964;19;20031;-56
2022/06/04 15:09:12;;;;;;;1.98;0.90;;;;;;;25.24;74.92;98643.16;15267805;19;20074;-57
2022/06/04 15:14:31;;;;;;;2.40;1.10;;;;;;;25.61;75.29;98624.41;15273203;19;20019;-51
2022/06/04 15:19:44;;;;;;;2.75;0.93;;;;;;;25.99;70.48;98637.31;15273195;19;20010;-57
2022/06/04 15:24:59;;;;;;;1.67;0.90;;;;;;;25.94;68.30;98645.56;15269024;19;20023;-55
2022/06/04 15:35:33;;;;;;;1.33;0.80;;;;;;;25.79;65.20;98637.06;15274225;19;20019;-53
2022/06/04 15:41:27;;;;;;;3.78;1.00;;;;;;;26.30;60.50;98634.97;15261990;19;20417;-53
2022/06/04 15:46:43;;;;;;;3.58;0.70;;;;;;;25.84;59.35;98621.41;15274379;19;20034;-55
2022/06/04 15:57:39;;;;;;;2.30;0.82;;;;;;;25.70;57.70;98617.34;15264902;19;20011;-56
2022/06/04 16:02:47;;;;;;;1.83;0.90;;;;;;;25.44;61.76;98622.56;15275946;19;20011;-59
2022/06/04 16:08:04;;;;;;;1.20;0.80;;;;;;;25.78;60.77;98627.97;15302877;19;20062;-58
2022/06/04 16:13:39;;;;;;;1.40;0.90;;;;;;;25.71;59.96;98629.25;15291729;19;20655;-53
2022/06/04 16:19:11;;;;;;;1.17;0.98;;;;;;;26.06;59.18;98628.84;15300521;19;20018;-58
2022/06/04 16:24:24;;;;;;;3.03;0.98;;;;;;;26.57;58.93;98636.06;15300497;19;20010;-60
2022/06/04 16:29:34;;;;;;;1.05;0.82;;;;;;;26.89;57.48;98621.44;15297258;19;20003;-53
2022/06/04 16:34:54;;;;;;;;;;;;;;;26.79;55.40;98630.50;15298706;19;20010;-58
2022/06/04 16:39:59;;;;;;;4.15;1.00;;;;;;;27.31;56.50;98631.72;15277342;19;19922;-60
2022/06/04 16:45:12;;;;;;;4.60;1.00;;;;;;;27.33;54.97;98640.59;15291295;19;20011;-57
2022/06/04 16:50:39;;;;;;;4.47;1.00;;;;;;;27.52;55.59;98631.88;15297045;19;22157;-58
2022/06/04 16:55:47;;;;;;;1.17;0.85;;;;;;;27.39;54.89;98627.63;15295884;19;20010;-58
2022/06/04 17:01:04;;;;;;;8.18;1.00;;;;;;;27.49;53.65;98641.56;15291931;19;20022;-59
2022/06/04 17:06:31;;;;;;;1.85;0.70;;;;;;;27.50;53.57;98631.31;15296379;19;20368;-55
2022/06/04 17:11:52;;;;;;;1.30;0.80;;;;;;;27.38;53.09;98648.91;15288345;19;21062;-58
2022/06/04 17:17:17;;;;;;;2.67;0.90;;;;;;;27.11;53.58;98646.22;15279326;19;20026;-60
2022/06/04 17:22:53;;;;;;;2.13;0.90;;;;;;;27.12;55.26;98652.59;15279975;19;20015;-55
2022/06/04 17:28:10;;;;;;;3.13;1.00;;;;;;;27.00;55.59;98656.38;15283279;19;20033;-59
2022/06/04 17:33:30;;;;;;;2.95;0.95;;;;;;;26.82;55.18;98659.53;15274260;19;20019;-59
2022/06/04 17:38:55;;;;;;;2.83;0.90;;;;;;;26.89;55.74;98666.53;15284207;19;20021;-59
2022/06/04 17:44:00;;;;;;;4.25;1.13;;;;;;;26.70;56.47;98667.94;15281951;19;20010;-60
2022/06/04 17:49:09;;;;;;;0.98;0.90;;;;;;;26.66;57.85;98672.34;15274045;19;20026;-57
2022/06/04 17:54:15;;;;;;;1.08;0.80;;;;;;;26.76;57.77;98684.31;15280556;19;20054;-58
2022/06/04 17:59:20;;;;;;;2.25;0.80;;;;;;;26.49;58.92;98691.78;15282447;19;20037;-54
2022/06/04 18:04:30;;;;;;;1.70;0.90;;;;;;;26.26;59.91;98679.94;15275683;19;20018;-59
2022/06/04 18:09:35;;;;;;;1.53;0.83;;;;;;;26.17;61.07;98692.53;15281799;19;20031;-59
2022/06/04 18:14:42;;;;;;;3.13;0.95;;;;;;;25.90;61.96;98690.50;15276103;19;20699;-60
2022/06/04 18:19:54;;;;;;;1.00;0.82;;;;;;;25.66;62.29;98694.31;15267563;19;20022;-57
2022/06/04 18:25:02;;;;;;;1.42;0.80;;;;;;;25.32;63.57;98694.31;15277138;19;20779;-58
2022/06/04 18:30:11;;;;;;;2.67;1.02;;;;;;;25.03;65.04;98699.06;15275949;19;20014;-59
2022/06/04 18:35:21;;;;;;;3.40;1.00;;;;;;;24.72;66.32;98696.59;15277363;19;20021;-55
2022/06/04 18:40:29;;;;;;;1.98;1.10;;;;;;;24.27;69.70;98692.72;15271822;19;20011;-55
2022/06/04 18:56:14;;;;;;;1.27;0.93;;;;;;;23.22;76.96;98711.78;15272643;19;20018;-57
2022/06/04 19:01:19;;;;;;;1.30;0.77;;;;;;;22.93;80.42;98708.81;15270922;19;20425;-55
2022/06/04 19:06:29;;;;;;;1.17;1.00;;;;;;;22.71;83.25;98711.25;15272520;19;20562;-60
2022/06/04 19:16:55;;;;;;;2.58;0.90;;;;;;;22.07;91.02;98709.75;15276518;19;20838;-55
2022/06/04 19:27:26;;;;;;;2.45;1.00;;;;;;;21.62;98.53;98718.25;15273385;19;20397;-60
2022/06/04 19:32:34;;;;;;;1.40;1.00;;;;;;;21.35;100.00;98732.16;15277026;19;20011;-52
2022/06/04 19:37:43;;;;;;;2.75;1.10;;;;;;;21.15;100.00;98735.09;15277055;19;20132;-52
2022/06/04 19:42:48;;;;;;;1.58;1.10;;;;;;;20.92;100.00;98734.59;15267967;19;20022;-53
2022/06/04 19:47:56;;;;;;;3.10;1.13;;;;;;;20.81;100.00;98740.78;15277376;19;20082;-60
2022/06/04 19:58:25;;;;;;;2.05;1.15;;;;;;;20.25;100.00;98756.84;15271244;19;20014;-57
2022/06/04 20:03:33;;;;;;;2.92;1.10;;;;;;;20.09;100.00;98738.16;15275435;19;20074;-55
2022/06/04 20:08:46;;;;;;;1.63;1.30;;;;;;;19.92;100.00;98741.38;15275375;19;20033;-56
2022/06/04 20:13:52;;;;;;;2.88;1.13;;;;;;;19.79;100.00;98742.19;15268014;19;20018;-57
2022/06/04 20:18:58;;;;;;;2.08;1.30;;;;;;;19.64;100.00;98750.63;15276772;19;20027;-58
2022/06/04 20:24:10;;;;;;;2.65;1.20;;;;;;;19.52;100.00;98750.44;15276322;19;20018;-56
2022/06/04 20:29:15;;;;;;;1.45;1.10;;;;;;;19.35;100.00;98741.81;15269188;19;20504;-59
2022/06/04 20:34:20;;;;;;;3.28;1.40;;;;;;;19.22;100.00;98753.59;15268058;19;20031;-55
2022/06/04 20:39:28;;;;;;;3.55;1.33;;;;;;;19.16;100.00;98761.78;15273088;19;20464;-58
2022/06/04 20:44:36;;;;;;;3.22;1.50;;;;;;;18.99;100.00;98775.00;15275315;19;20480;-54
2022/06/04 20:49:47;;;;;;;1.48;1.20;;;;;;;18.90;100.00;98771.59;15284610;19;20019;-59
2022/06/04 20:54:55;;;;;;;2.83;1.40;;;;;;;18.81;100.00;98773.69;15287340;19;20045;-53
2022/06/04 21:00:00;;;;;;;3.20;1.40;;;;;;;18.59;100.00;98775.72;15287148;19;20366;-52
2022/06/04 21:05:08;;;;;;;1.95;1.33;;;;;;;18.41;100.00;98768.91;15282325;19;20015;-55
2022/06/04 21:10:18;;;;;;;2.63;1.52;;;;;;;18.37;100.00;98772.25;15288449;19;20019;-53
2022/06/04 21:15:23;;;;;;;2.28;1.40;;;;;;;18.30;100.00;98766.78;15288119;19;20006;-56
2022/06/04 21:20:31;;;;;;;2.03;1.35;;;;;;;18.18;100.00;98764.63;15279628;19;20022;-53
2022/06/04 21:25:46;;;;;;;3.50;1.50;;;;;;;18.04;100.00;98749.25;15285209;19;20547;-51
2022/06/04 21:30:51;;;;;;;2.30;1.50;;;;;;;17.98;100.00;98750.06;15288468;19;20139;-50
2022/06/04 21:41:16;;;;;;;2.17;1.38;;;;;;;17.86;100.00;98745.13;15290212;19;20046;-58
2022/06/04 21:46:21;;;;;;;3.78;1.48;;;;;;;17.84;100.00;98747.22;15291850;19;20110;-53
2022/06/04 21:51:27;;;;;;;7.50;1.70;;;;;;;17.75;100.00;98750.31;15282811;19;20808;-54
2022/06/04 21:56:35;;;;;;;3.08;1.52;;;;;;;17.67;100.00;98754.88;15288270;19;20078;-55
2022/06/04 22:01:43;;;;;;;2.13;1.50;;;;;;;17.55;100.00;98754.59;15284494;19;20377;-56
2022/06/04 22:06:52;;;;;;;2.28;1.40;;;;;;;17.41;100.00;98759.06;15280631;19;20364;-54
2022/06/04 22:12:11;;;;;;;2.20;1.48;;;;;;;17.31;100.00;98765.91;15284774;19;20077;-52
2022/06/04 22:17:16;;;;;;;2.45;1.73;;;;;;;17.18;100.00;98764.75;15287375;19;20015;-54
2022/06/04 22:22:22;;;;;;;2.53;1.60;;;;;;;17.10;100.00;98756.75;15279180;19;20018;-55
2022/06/04 22:27:30;;;;;;;2.15;1.60;;;;;;;16.98;100.00;98758.28;15288568;19;20012;-56
2022/06/04 22:38:15;;;;;;;2.30;1.55;;;;;;;16.73;100.00;98736.88;15279571;19;20481;-56
2022/06/04 22:43:22;;;;;;;4.45;1.70;;;;;;;16.69;100.00;98739.16;15270612;19;20026;-53
2022/06/04 22:48:27;;;;;;;2.70;1.90;;;;;;;16.63;100.00;98727.16;15286070;19;20034;-54
2022/06/04 22:53:33;;;;;;;2.63;1.90;;;;;;;16.58;100.00;98724.16;15277433;19;20018;-55
2022/06/04 22:58:41;;;;;;;2.20;2.00;;;;;;;16.51;100.00;98725.13;15282248;19;20030;-53
2022/06/04 23:03:46;;;;;;;2.47;1.95;;;;;;;16.38;100.00;98717.66;15281118;19;20010;-54
2022/06/04 23:08:51;;;;;;;3.90;2.10;;;;;;;16.30;100.00;98729.50;15286178;19;20018;-56
2022/06/04 23:24:39;;;;;;;2.67;1.95;;;;;;;16.12;100.00;98716.31;15284747;19;20386;-59
2022/06/04 23:29:47;;;;;;;2.72;2.00;;;;;;;16.02;100.00;98706.59;15279538;19;20014;-56
2022/06/04 23:34:52;;;;;;;3.92;2.10;;;;;;;15.85;100.00;98707.81;15276459;19;20042;-54
2022/06/04 23:39:57;;;;;;;3.08;2.10;;;;;;;15.77;100.00;98714.13;15281544;19;20022;-57
2022/06/04 23:45:05;;;;;;;3.70;2.20;;;;;;;15.68;100.00;98720.72;15267639;19;20006;-57
2022/06/04 23:50:12;;;;;;;3.17;2.53;;;;;;;15.58;100.00;98726.44;15273387;19;20054;-54
2022/06/04 23:55:17;;;;;;;2.92;2.50;;;;;;;15.46;100.00;98725.19;15267683;19;20030;-55
